createdAt,value
2019-03-21T00:01:18.533Z,10.75
2019-03-21T00:03:46.887Z,8.73
2019-03-21T00:06:15.248Z,9.20
2019-03-21T00:08:43.604Z,9.48
2019-03-21T00:11:30.506Z,8.00
2019-03-21T00:14:06.988Z,9.20
2019-03-21T00:16:28.003Z,7.90
2019-03-21T00:18:56.341Z,9.10
2019-03-21T00:23:59.900Z,9.20
2019-03-21T00:26:28.240Z,7.57
2019-03-21T00:28:56.603Z,7.68
2019-03-21T00:31:24.980Z,8.10
2019-03-21T00:33:53.380Z,7.47
2019-03-21T00:36:21.751Z,9.13
2019-03-21T00:38:50.112Z,9.50
2019-03-21T00:41:18.493Z,7.50
2019-03-21T00:43:46.849Z,9.27
2019-03-21T00:46:15.225Z,9.00
2019-03-21T00:48:43.636Z,7.40
2019-03-21T00:53:45.987Z,8.50
2019-03-21T00:56:14.336Z,9.60
2019-03-21T00:58:42.820Z,9.73
2019-03-21T01:01:12.002Z,8.03
2019-03-21T01:06:16.596Z,9.35
2019-03-21T01:08:44.992Z,10.63
2019-03-21T01:11:13.372Z,9.20
2019-03-21T01:13:42.160Z,8.33
2019-03-21T01:16:10.520Z,9.57
2019-03-21T01:18:39.817Z,10.80
2019-03-21T01:21:08.175Z,9.83
2019-03-21T01:23:36.579Z,10.10
2019-03-21T01:26:04.908Z,9.88
2019-03-21T01:31:10.433Z,10.50
2019-03-21T01:33:38.793Z,11.07
2019-03-21T01:36:07.176Z,9.53
2019-03-21T01:38:35.535Z,10.43
2019-03-21T01:41:07.413Z,11.15
2019-03-21T01:43:35.879Z,10.55
2019-03-21T01:46:19.112Z,9.40
2019-03-21T01:48:47.476Z,10.48
2019-03-21T01:51:15.895Z,10.73
2019-03-21T01:56:22.386Z,10.90
2019-03-21T01:58:50.729Z,8.73
2019-03-21T02:01:54.328Z,11.47
2019-03-21T02:04:22.725Z,10.50
2019-03-21T02:06:51.136Z,10.03
2019-03-21T02:09:20.457Z,11.32
2019-03-21T02:11:48.913Z,11.00
2019-03-21T02:14:17.270Z,8.17
2019-03-21T02:16:45.620Z,11.70
2019-03-21T02:19:13.974Z,13.00
2019-03-21T02:21:42.491Z,11.30
2019-03-21T02:24:10.800Z,13.10
2019-03-21T02:26:40.124Z,13.90
2019-03-21T02:29:08.490Z,11.37
2019-03-21T02:31:36.829Z,13.35
2019-03-21T02:34:05.191Z,13.52
2019-03-21T02:36:36.741Z,11.10
2019-03-21T02:39:05.109Z,12.00
2019-03-21T02:41:33.448Z,12.43
2019-03-21T02:44:01.810Z,10.73
2019-03-21T02:46:30.210Z,12.45
2019-03-21T02:48:58.563Z,13.50
2019-03-21T02:51:27.922Z,11.20
2019-03-21T02:53:56.314Z,12.27
2019-03-21T02:56:24.742Z,12.90
2019-03-21T02:58:53.037Z,11.90
2019-03-21T03:03:58.100Z,11.23
2019-03-21T03:06:27.405Z,9.63
2019-03-21T03:08:55.781Z,10.73
2019-03-21T03:11:24.191Z,11.25
2019-03-21T03:13:53.461Z,10.37
2019-03-21T03:16:21.861Z,12.00
2019-03-21T03:18:50.198Z,12.50
2019-03-21T03:21:19.580Z,10.87
2019-03-21T03:23:47.974Z,11.63
2019-03-21T03:26:16.328Z,11.75
2019-03-21T03:28:45.446Z,9.50
2019-03-21T03:31:13.820Z,11.38
2019-03-21T03:33:43.113Z,11.90
2019-03-21T03:36:11.510Z,9.37
2019-03-21T03:38:39.888Z,12.20
2019-03-21T03:41:09.629Z,11.93
2019-03-21T03:43:39.072Z,12.50
2019-03-21T03:46:07.427Z,10.10
2019-03-21T03:48:35.777Z,12.90
2019-03-21T03:51:04.157Z,10.40
2019-03-21T03:53:33.535Z,11.48
2019-03-21T03:56:01.894Z,12.35
2019-03-21T03:58:32.751Z,11.50
2019-03-21T04:01:01.040Z,12.70
2019-03-21T04:06:03.727Z,13.95
2019-03-21T04:08:33.496Z,11.50
2019-03-21T04:11:01.865Z,13.50
2019-03-21T04:13:30.203Z,14.52
2019-03-21T04:15:59.060Z,13.70
2019-03-21T04:18:27.474Z,14.80
2019-03-21T04:21:07.871Z,14.27
2019-03-21T04:23:36.193Z,12.20
2019-03-21T04:26:08.988Z,14.52
2019-03-21T04:28:37.418Z,11.50
2019-03-21T04:31:05.836Z,14.13
2019-03-21T04:36:10.578Z,13.75
2019-03-21T04:38:39.849Z,12.07
2019-03-21T04:41:09.148Z,16.23
2019-03-21T04:43:38.571Z,15.13
2019-03-21T04:46:06.929Z,13.13
2019-03-21T04:48:35.286Z,15.00
2019-03-21T04:51:03.680Z,15.40
2019-03-21T04:53:32.082Z,15.98
2019-03-21T04:56:00.451Z,11.27
2019-03-21T04:58:28.878Z,14.50
2019-03-21T05:00:57.269Z,14.00
2019-03-21T05:03:29.244Z,12.73
2019-03-21T05:05:57.687Z,14.80
2019-03-21T05:08:28.039Z,16.15
2019-03-21T05:10:57.284Z,11.73
2019-03-21T05:13:25.664Z,13.60
2019-03-21T05:15:54.026Z,14.85
2019-03-21T05:21:02.554Z,14.15
2019-03-21T05:23:31.094Z,12.40
2019-03-21T05:25:59.446Z,13.80
2019-03-21T05:28:27.978Z,14.27
2019-03-21T05:31:12.220Z,14.80
2019-03-21T05:33:42.583Z,16.10
2019-03-21T05:36:10.937Z,13.03
2019-03-21T05:38:39.336Z,15.35
2019-03-21T05:41:07.941Z,12.93
2019-03-21T05:43:37.933Z,14.37
2019-03-21T05:46:06.309Z,14.20
2019-03-21T05:48:34.667Z,14.02
2019-03-21T05:51:03.952Z,11.70
2019-03-21T05:53:32.363Z,14.57
2019-03-21T05:56:00.714Z,14.20
2019-03-21T05:58:29.124Z,12.57
2019-03-21T06:00:57.482Z,15.45
2019-03-21T06:03:30.752Z,14.63
2019-03-21T06:06:11.780Z,16.00
2019-03-21T06:08:40.148Z,16.95
2019-03-21T06:11:08.502Z,12.20
2019-03-21T06:13:36.863Z,14.93
2019-03-21T06:16:06.125Z,15.88
2019-03-21T06:18:51.297Z,12.30
2019-03-21T06:24:16.076Z,16.98
2019-03-21T06:29:27.620Z,15.82
2019-03-21T06:31:55.991Z,13.20
2019-03-21T06:34:24.356Z,14.20
2019-03-21T06:36:52.732Z,11.73
2019-03-21T06:41:55.365Z,14.95
2019-03-21T06:44:23.742Z,12.67
2019-03-21T06:46:52.134Z,14.10
2019-03-21T06:49:20.511Z,14.07
2019-03-21T06:51:48.872Z,14.30
2019-03-21T06:59:28.774Z,13.43
2019-03-21T07:01:57.145Z,11.50
2019-03-21T07:04:25.488Z,11.10
2019-03-21T07:06:54.013Z,12.07
2019-03-21T07:09:22.363Z,10.37
2019-03-21T07:11:50.716Z,10.77
2019-03-21T07:14:19.190Z,9.70
2019-03-21T07:16:47.529Z,9.97
2019-03-21T07:19:15.870Z,9.50
2019-03-21T07:21:44.289Z,12.30
2019-03-21T07:24:12.693Z,11.13
2019-03-21T07:26:41.043Z,11.90
2019-03-21T07:29:09.395Z,10.23
2019-03-21T07:31:39.652Z,9.30
2019-03-21T07:34:10.110Z,11.13
2019-03-21T07:36:38.368Z,10.00
2019-03-21T07:39:06.706Z,10.10
2019-03-21T07:41:36.008Z,10.37
2019-03-21T07:44:05.307Z,10.20
2019-03-21T07:49:10.950Z,10.98
2019-03-21T07:51:39.305Z,10.75
2019-03-21T07:56:42.778Z,6.75
2019-03-21T07:59:11.135Z,6.70
2019-03-21T08:01:39.512Z,5.90
2019-03-21T08:04:08.099Z,6.03
2019-03-21T08:06:37.460Z,5.70
2019-03-21T08:09:07.842Z,5.07
2019-03-21T08:11:36.186Z,5.50
2019-03-21T08:16:42.891Z,5.25
2019-03-21T08:19:11.242Z,5.00
2019-03-21T08:21:39.608Z,4.60
2019-03-21T08:24:07.942Z,5.20
2019-03-21T08:26:36.301Z,4.40
2019-03-21T08:31:38.882Z,4.70
2019-03-21T08:34:07.200Z,4.80
2019-03-21T08:36:35.559Z,3.80
2019-03-21T08:39:04.074Z,4.20
2019-03-21T08:41:32.477Z,3.87
2019-03-21T08:44:00.795Z,4.57
2019-03-21T08:46:30.182Z,4.10
2019-03-21T08:48:58.622Z,4.50
2019-03-21T08:51:26.966Z,4.53
2019-03-21T08:53:55.349Z,4.50
2019-03-21T08:56:23.706Z,3.87
2019-03-21T08:58:52.049Z,3.47
2019-03-21T09:01:20.423Z,4.30
2019-03-21T09:03:49.664Z,3.93
2019-03-21T09:06:17.996Z,4.30
2019-03-21T09:08:46.345Z,4.10
2019-03-21T09:11:14.741Z,4.40
2019-03-21T09:13:43.088Z,4.20
2019-03-21T09:16:11.449Z,4.22
2019-03-21T09:18:39.792Z,4.10
2019-03-21T09:21:18.850Z,4.60
2019-03-21T09:23:36.481Z,4.27
2019-03-21T09:26:04.835Z,3.80
2019-03-21T09:28:33.190Z,5.10
2019-03-21T09:31:01.538Z,4.77
2019-03-21T09:33:29.893Z,3.97
2019-03-21T09:38:33.437Z,4.20
2019-03-21T09:41:01.776Z,4.20
2019-03-21T09:43:30.153Z,4.57
2019-03-21T09:45:58.493Z,4.27
2019-03-21T09:48:26.839Z,4.40
2019-03-21T09:50:55.217Z,4.37
2019-03-21T09:55:57.844Z,4.22
2019-03-21T09:58:26.250Z,3.70
2019-03-21T10:00:54.599Z,4.53
2019-03-21T10:03:22.951Z,4.10
2019-03-21T10:05:51.319Z,4.07
2019-03-21T10:08:19.661Z,4.57
2019-03-21T10:10:48.026Z,4.00
2019-03-21T10:13:16.384Z,4.33
2019-03-21T10:15:44.727Z,4.00
2019-03-21T10:18:13.108Z,4.10
2019-03-21T10:20:41.648Z,4.20
2019-03-21T10:23:09.988Z,4.20
2019-03-21T10:25:38.361Z,4.70
2019-03-21T10:28:06.735Z,4.87
2019-03-21T10:30:37.067Z,4.60
2019-03-21T10:33:05.435Z,4.70
2019-03-21T10:35:33.788Z,5.07
2019-03-21T10:38:02.146Z,5.03
2019-03-21T10:40:30.584Z,5.37
2019-03-21T10:42:58.979Z,5.07
2019-03-21T10:45:27.295Z,5.00
2019-03-21T10:47:55.631Z,4.80
2019-03-21T10:50:27.553Z,4.80
2019-03-21T10:52:55.915Z,4.70
2019-03-21T10:55:24.284Z,5.63
2019-03-21T10:57:53.570Z,4.90
2019-03-21T11:00:21.928Z,5.10
2019-03-21T11:02:50.301Z,4.93
2019-03-21T11:05:18.647Z,4.63
2019-03-21T11:07:47.077Z,4.30
2019-03-21T11:10:15.436Z,5.07
2019-03-21T11:12:44.081Z,4.60
2019-03-21T11:15:12.456Z,4.67
2019-03-21T11:17:40.853Z,5.07
2019-03-21T11:22:45.902Z,4.55
2019-03-21T11:25:15.091Z,5.93
2019-03-21T11:27:43.442Z,4.87
2019-03-21T11:32:50.109Z,5.40
2019-03-21T11:35:18.471Z,5.60
2019-03-21T11:40:21.159Z,5.95
2019-03-21T11:42:49.535Z,5.40
2019-03-21T11:45:17.877Z,5.70
2019-03-21T11:47:46.392Z,5.57
2019-03-21T11:50:14.850Z,5.17
2019-03-21T11:52:43.176Z,5.30
2019-03-21T11:55:11.559Z,5.00
2019-03-21T11:57:40.956Z,5.30
2019-03-21T12:00:09.311Z,5.25
2019-03-21T12:02:38.660Z,6.20
2019-03-21T12:05:07.001Z,5.40
2019-03-21T12:12:44.813Z,5.10
2019-03-21T12:15:13.206Z,5.63
2019-03-21T12:17:41.607Z,5.50
2019-03-21T12:20:09.991Z,5.20
2019-03-21T12:22:38.364Z,6.03
2019-03-21T12:25:06.710Z,6.53
2019-03-21T12:27:35.067Z,6.67
2019-03-21T12:30:03.421Z,6.97
2019-03-21T12:32:31.768Z,5.40
2019-03-21T12:35:00.399Z,6.67
2019-03-21T12:37:28.496Z,6.40
2019-03-21T12:39:57.827Z,6.67
2019-03-21T12:42:26.256Z,6.70
2019-03-21T12:44:54.625Z,6.53
2019-03-21T12:47:31.187Z,6.00
2019-03-21T12:49:51.324Z,6.70
2019-03-21T12:52:20.692Z,6.57
2019-03-21T12:54:49.109Z,6.70
2019-03-21T12:59:51.761Z,6.10
2019-03-21T13:02:31.842Z,6.03
2019-03-21T13:04:48.523Z,6.00
2019-03-21T13:07:17.194Z,5.73
2019-03-21T13:09:45.232Z,6.20
2019-03-21T13:12:13.634Z,5.83
2019-03-21T13:14:41.973Z,5.87
2019-03-21T13:17:10.339Z,5.70
2019-03-21T13:19:39.650Z,6.40
2019-03-21T13:22:08.046Z,6.47
2019-03-21T13:24:36.394Z,7.00
2019-03-21T13:29:39.387Z,5.82
2019-03-21T13:34:42.043Z,6.35
2019-03-21T13:37:10.389Z,6.30
2019-03-21T13:39:38.829Z,7.20
2019-03-21T13:42:07.169Z,6.00
2019-03-21T13:44:35.528Z,5.47
2019-03-21T13:47:03.941Z,7.57
2019-03-21T13:49:32.276Z,6.13
2019-03-21T13:52:00.672Z,5.90
2019-03-21T13:54:29.014Z,5.90
2019-03-21T13:59:31.742Z,6.20
2019-03-21T14:02:00.026Z,6.20
2019-03-21T14:09:39.957Z,6.40
2019-03-21T14:12:08.358Z,6.40
2019-03-21T14:14:37.415Z,6.73
2019-03-21T14:17:05.764Z,6.97
2019-03-21T14:19:34.155Z,5.93
2019-03-21T14:24:37.801Z,6.40
2019-03-21T14:27:06.176Z,6.93
2019-03-21T14:29:34.546Z,6.37
2019-03-21T14:32:03.022Z,7.37
2019-03-21T14:34:31.373Z,6.40
2019-03-21T14:36:59.763Z,6.40
2019-03-21T14:39:28.159Z,6.20
2019-03-21T14:41:56.513Z,5.63
2019-03-21T14:46:59.250Z,5.90
2019-03-21T14:52:04.962Z,5.95
2019-03-21T14:54:33.688Z,6.63
2019-03-21T14:57:02.029Z,6.33
2019-03-21T14:59:30.440Z,6.57
2019-03-21T15:01:58.851Z,7.13
2019-03-21T15:04:27.215Z,6.13
2019-03-21T15:12:04.245Z,6.72
2019-03-21T15:14:32.611Z,6.40
2019-03-21T15:17:00.988Z,6.37
2019-03-21T15:19:29.348Z,6.03
2019-03-21T15:21:57.720Z,7.00
2019-03-21T15:24:26.107Z,6.60
2019-03-21T15:26:54.446Z,6.97
2019-03-21T15:31:57.612Z,7.07
2019-03-21T15:37:00.286Z,6.30
2019-03-21T15:39:28.734Z,6.40
2019-03-21T15:41:57.122Z,6.50
2019-03-21T15:44:25.550Z,7.03
2019-03-21T15:46:54.125Z,6.50
2019-03-21T15:49:22.477Z,6.70
2019-03-21T15:51:50.870Z,6.23
2019-03-21T15:54:19.241Z,6.37
2019-03-21T15:56:47.613Z,6.40
2019-03-21T15:59:16.012Z,6.20
2019-03-21T16:01:44.419Z,6.17
2019-03-21T16:04:12.810Z,6.40
2019-03-21T16:06:41.164Z,6.60
2019-03-21T16:09:09.519Z,6.60
2019-03-21T16:11:37.914Z,6.50
2019-03-21T16:14:06.303Z,5.73
2019-03-21T16:19:08.917Z,6.20
2019-03-21T16:21:37.272Z,5.90
2019-03-21T16:24:11.196Z,6.50
2019-03-21T16:26:39.960Z,6.40
2019-03-21T16:29:10.230Z,6.05
2019-03-21T16:31:40.025Z,6.07
2019-03-21T16:34:09.380Z,5.87
2019-03-21T16:36:37.754Z,6.33
2019-03-21T16:39:07.041Z,6.47
2019-03-21T16:41:35.405Z,6.40
2019-03-21T16:44:03.806Z,6.40
2019-03-21T16:46:33.106Z,5.73
2019-03-21T16:51:35.716Z,5.87
2019-03-21T16:54:12.252Z,6.60
2019-03-21T16:56:32.431Z,6.20
2019-03-21T16:59:00.780Z,6.13
2019-03-21T17:01:29.279Z,6.03
2019-03-21T17:03:57.593Z,6.10
2019-03-21T17:06:25.968Z,5.70
2019-03-21T17:08:54.286Z,6.50
2019-03-21T17:13:57.844Z,7.00
2019-03-21T17:16:26.259Z,6.10
2019-03-21T17:18:54.583Z,6.20
2019-03-21T17:21:22.947Z,6.47
2019-03-21T17:23:51.346Z,5.63
2019-03-21T17:26:19.685Z,5.37
2019-03-21T17:28:48.032Z,6.33
2019-03-21T17:31:16.412Z,6.85
2019-03-21T17:33:44.835Z,6.93
2019-03-21T17:36:13.200Z,7.20
2019-03-21T17:38:41.561Z,6.63
2019-03-21T17:41:09.893Z,6.20
2019-03-21T17:43:38.239Z,6.50
2019-03-21T17:46:06.590Z,6.53
2019-03-21T17:48:34.938Z,7.00
2019-03-21T17:51:03.365Z,6.90
2019-03-21T17:53:31.713Z,7.30
2019-03-21T17:56:00.173Z,6.77
2019-03-21T17:58:28.830Z,6.70
2019-03-21T18:00:56.865Z,6.70
2019-03-21T18:03:25.212Z,7.80
2019-03-21T18:05:54.521Z,7.03
2019-03-21T18:08:22.860Z,8.10
2019-03-21T18:10:51.201Z,9.13
2019-03-21T18:13:19.619Z,8.00
2019-03-21T18:15:47.931Z,9.02
2019-03-21T18:18:16.330Z,9.80
2019-03-21T18:20:44.664Z,10.57
2019-03-21T18:23:13.042Z,10.33
2019-03-21T18:25:41.513Z,10.73
2019-03-21T18:28:10.256Z,9.57
2019-03-21T18:30:38.584Z,10.20
2019-03-21T18:33:07.069Z,10.50
2019-03-21T18:35:35.416Z,11.02
2019-03-21T18:38:03.793Z,10.25
2019-03-21T18:40:33.073Z,10.87
2019-03-21T18:43:01.446Z,8.27
2019-03-21T18:45:30.780Z,7.43
2019-03-21T18:47:59.124Z,6.43
2019-03-21T18:50:27.525Z,7.03
2019-03-21T18:52:55.912Z,7.63
2019-03-21T18:55:24.808Z,7.70
2019-03-21T18:57:53.133Z,6.87
2019-03-21T19:00:22.708Z,6.93
2019-03-21T19:02:51.080Z,6.80
2019-03-21T19:05:20.374Z,7.77
2019-03-21T19:07:48.733Z,6.87
2019-03-21T19:12:51.363Z,8.30
2019-03-21T19:15:19.739Z,8.27
2019-03-21T19:17:48.189Z,7.60
2019-03-21T19:20:17.534Z,8.50
2019-03-21T19:22:46.277Z,8.90
2019-03-21T19:25:18.863Z,8.57
2019-03-21T19:27:43.249Z,8.53
2019-03-21T19:30:13.746Z,7.17
2019-03-21T19:32:42.100Z,9.55
2019-03-21T19:35:11.453Z,8.93
2019-03-21T19:37:40.746Z,8.70
2019-03-21T19:40:09.072Z,7.63
2019-03-21T19:42:37.417Z,7.67
2019-03-21T19:45:05.803Z,10.10
2019-03-21T19:47:34.168Z,9.50
2019-03-21T19:50:02.528Z,7.50
2019-03-21T19:52:34.722Z,6.40
2019-03-21T19:57:37.427Z,8.25
2019-03-21T20:00:06.657Z,19.77
2019-03-21T20:02:35.022Z,17.37
2019-03-21T20:05:04.400Z,15.97
2019-03-21T20:07:32.775Z,12.37
2019-03-21T20:10:01.193Z,10.30
2019-03-21T20:12:29.572Z,10.23
2019-03-21T20:14:57.932Z,9.27
2019-03-21T20:17:26.283Z,11.70
2019-03-21T20:19:56.576Z,15.10
2019-03-21T20:22:24.957Z,21.65
2019-03-21T20:24:53.318Z,18.10
2019-03-21T20:27:22.689Z,13.27
2019-03-21T20:29:51.028Z,7.60
2019-03-21T20:32:20.701Z,7.15
2019-03-21T20:34:47.784Z,6.30
2019-03-21T20:37:16.188Z,6.63
2019-03-21T20:39:44.591Z,8.20
2019-03-21T20:42:13.973Z,7.00
2019-03-21T20:44:43.287Z,8.67
2019-03-21T20:47:11.663Z,7.77
2019-03-21T20:52:14.253Z,9.95
2019-03-21T20:54:44.567Z,8.93
2019-03-21T20:57:13.904Z,8.40
2019-03-21T20:59:44.232Z,7.83
2019-03-21T21:02:12.638Z,8.30
2019-03-21T21:04:41.018Z,7.60
2019-03-21T21:07:09.384Z,6.90
2019-03-21T21:09:37.747Z,8.63
2019-03-21T21:12:06.164Z,10.30
2019-03-21T21:14:34.513Z,9.40
2019-03-21T21:19:37.150Z,10.95
2019-03-21T21:22:05.480Z,8.53
2019-03-21T21:24:33.849Z,8.90
2019-03-21T21:29:36.463Z,8.95
2019-03-21T21:32:04.939Z,10.80
2019-03-21T21:34:33.204Z,11.50
2019-03-21T21:37:01.570Z,11.37
2019-03-21T21:39:30.008Z,10.80
2019-03-21T21:41:58.430Z,10.40
2019-03-21T21:44:26.800Z,9.40
2019-03-21T21:46:56.081Z,9.63
2019-03-21T21:49:24.517Z,10.03
2019-03-21T21:51:52.854Z,12.18
2019-03-21T21:54:21.263Z,10.57
2019-03-21T21:56:53.141Z,15.13
2019-03-21T21:59:21.520Z,14.13
2019-03-21T22:01:50.810Z,13.00
2019-03-21T22:04:19.192Z,12.33
2019-03-21T22:06:47.637Z,13.48
2019-03-21T22:09:16.040Z,11.30
2019-03-21T22:11:44.430Z,12.77
2019-03-21T22:14:12.777Z,13.95
2019-03-21T22:16:41.146Z,13.30
2019-03-21T22:19:09.619Z,17.30
2019-03-21T22:21:37.979Z,18.17
2019-03-21T22:24:06.336Z,18.80
2019-03-21T22:26:36.786Z,14.80
2019-03-21T22:29:05.110Z,18.40
2019-03-21T22:31:33.570Z,15.93
2019-03-21T22:34:01.913Z,17.98
2019-03-21T22:36:31.224Z,11.10
2019-03-21T22:39:00.602Z,11.35
2019-03-21T22:41:30.994Z,10.50
2019-03-21T22:43:59.541Z,9.23
2019-03-21T22:46:27.907Z,11.10
2019-03-21T22:48:56.257Z,9.43
2019-03-21T22:51:24.640Z,11.95
2019-03-21T22:53:52.985Z,11.10
2019-03-21T22:56:22.283Z,12.65
2019-03-21T22:58:50.632Z,13.60
2019-03-21T23:01:18.984Z,11.50
2019-03-21T23:03:47.339Z,10.13
2019-03-21T23:06:15.696Z,12.10
2019-03-21T23:08:45.046Z,10.33
2019-03-21T23:11:13.429Z,11.57
2019-03-21T23:13:41.758Z,10.93
2019-03-21T23:23:08.667Z,11.93
2019-03-21T23:25:37.139Z,11.30
2019-03-21T23:28:05.530Z,11.82
2019-03-21T23:30:34.064Z,9.40
2019-03-21T23:33:02.437Z,12.02
2019-03-21T23:35:30.798Z,10.07
2019-03-21T23:38:00.183Z,11.05
2019-03-21T23:40:28.583Z,10.20
2019-03-21T23:42:56.950Z,11.80
2019-03-21T23:45:25.327Z,10.83
2019-03-21T23:50:27.907Z,10.38
2019-03-21T23:52:56.304Z,10.13
2019-03-21T23:55:24.686Z,11.05
2019-03-21T23:57:53.036Z,9.50
